Time;durP1;ratioP1;P1;durP2;ratioP2;P2;SDS_P1;SDS_P2;PMS_P1;PMS_P2;Temp;Humidity;BMP_temperature;BMP_pressure;BME280_temperature;BME280_humidity;BME280_pressure;Samples;Min_cycle;Max_cycle;Signal;HPM_P1;HPM_P2
2022/03/15 00:00:33;;;;;;;;;;;;;;;3.67;64.46;100146.63;4386027;32;19952;-74
2022/03/15 00:03:09;;;;;;;;;;;;;;;3.66;64.57;100160.94;4388657;32;19952;-73
2022/03/15 00:05:36;;;;;;;;;;;;;;;3.62;64.85;100155.13;4390331;32;19992;-74
2022/03/15 00:08:04;;;;;;;;;;;;;;;3.60;65.43;100146.47;4364713;32;19972;-74
2022/03/15 00:10:30;;;;;;;;;;;;;;;3.58;65.95;100153.81;4364072;32;19942;-74
2022/03/15 00:12:57;;;;;;;;;;;;;;;3.53;66.57;100156.19;4390025;32;19954;-74
2022/03/15 00:15:25;;;;;;;;;;;;;;;3.55;66.69;100148.84;4364814;32;20228;-74
2022/03/15 00:17:52;;;;;;;;;;;;;;;3.52;67.08;100146.53;4377008;32;20046;-73
2022/03/15 00:20:21;;;;;;;;;;;;;;;3.51;67.64;100147.56;4376910;32;19948;-73
2022/03/15 00:22:48;;;;;;;;;;;;;;;3.49;68.53;100149.53;4376405;32;20278;-74
2022/03/15 00:25:16;;;;;;;;;;;;;;;3.48;69.11;100153.22;4376784;32;19944;-73
2022/03/15 00:27:45;;;;;;;42.78;17.67;;;;;;;3.47;69.57;100140.91;4375976;32;20072;-72
2022/03/15 00:30:14;;;;;;;41.33;16.90;;;;;;;3.15;70.49;100094.03;4375998;32;20030;-73
2022/03/15 00:32:42;;;;;;;47.08;15.65;;;;;;;3.42;70.84;100132.63;4389887;32;20049;-73
2022/03/15 00:35:14;;;;;;;45.67;16.65;;;;;;;3.38;71.45;100148.13;4363538;32;20458;-73
2022/03/15 00:37:44;;;;;;;43.38;17.50;;;;;;;3.13;71.75;100104.84;4364811;32;20360;-74
2022/03/15 00:40:15;;;;;;;42.25;16.00;;;;;;;3.36;72.00;100142.13;4375873;32;20043;-74
2022/03/15 00:42:46;;;;;;;42.88;17.40;;;;;;;3.00;72.31;100083.28;4389961;32;20196;-74
2022/03/15 00:45:15;;;;;;;44.63;15.95;;;;;;;3.36;72.62;100146.63;4357362;33;20164;-75
2022/03/15 00:47:45;;;;;;;35.85;15.50;;;;;;;3.34;73.29;100156.63;4345820;33;20400;-75
2022/03/15 00:50:13;;;;;;;45.72;17.25;;;;;;;3.27;73.79;100146.69;4345126;33;20094;-73
2022/03/15 00:52:41;;;;;;;37.53;15.50;;;;;;;3.00;74.69;100099.25;4357304;32;20040;-75
2022/03/15 00:55:09;;;;;;;39.67;15.05;;;;;;;3.24;75.23;100136.38;4357184;32;20045;-75
2022/03/15 00:57:36;;;;;;;36.97;15.27;;;;;;;3.25;75.90;100148.69;4344402;33;20341;-75
2022/03/15 01:00:04;;;;;;;44.13;16.67;;;;;;;3.23;76.35;100150.69;4344920;33;20436;-75
2022/03/15 01:02:32;;;;;;;43.10;16.98;;;;;;;3.20;76.85;100129.75;4357199;32;20024;-75
2022/03/15 01:04:59;;;;;;;41.47;15.75;;;;;;;3.21;77.68;100135.91;4344599;33;20032;-74
2022/03/15 01:07:26;;;;;;;43.47;16.50;;;;;;;3.11;78.14;100120.12;4344555;33;20057;-74
2022/03/15 01:09:53;;;;;;;38.80;16.92;;;;;;;2.90;78.22;100081.69;4338434;33;20050;-74
2022/03/15 01:12:19;;;;;;;37.28;16.05;;;;;;;3.23;78.92;100134.72;4329848;33;20032;-74
2022/03/15 01:14:46;;;;;;;38.45;16.05;;;;;;;2.90;79.92;100087.00;4344676;33;20079;-74
2022/03/15 01:17:14;;;;;;;46.00;18.37;;;;;;;2.93;80.21;100088.47;4385472;32;20048;-74
2022/03/15 01:19:42;;;;;;;37.30;17.48;;;;;;;2.93;80.65;100083.16;4375223;32;20023;-74
2022/03/15 01:22:09;;;;;;;36.22;14.45;;;;;;;3.25;80.92;100138.03;4375313;32;20043;-74
2022/03/15 01:24:36;;;;;;;38.85;16.27;;;;;;;2.92;80.98;100078.84;4388585;32;20034;-74
2022/03/15 01:27:03;;;;;;;38.33;16.23;;;;;;;3.21;82.07;100136.72;4388769;32;20405;-74
2022/03/15 01:29:30;;;;;;;40.95;16.55;;;;;;;3.03;82.31;100117.53;4375547;32;20042;-74
2022/03/15 01:31:59;;;;;;;42.00;17.30;;;;;;;3.04;82.90;100108.53;4388761;32;20039;-74
2022/03/15 01:34:28;;;;;;;45.40;17.25;;;;;;;2.86;83.13;100080.34;4374938;32;20023;-74
2022/03/15 01:36:58;;;;;;;45.65;17.55;;;;;;;3.19;84.44;100137.91;4369849;32;20072;-73
2022/03/15 01:39:27;;;;;;;46.33;17.17;;;;;;;2.93;84.21;100090.31;4375249;32;20340;-74
2022/03/15 01:41:54;;;;;;;40.75;17.80;;;;;;;3.26;83.89;100122.91;4388654;32;20061;-74
2022/03/15 01:44:22;;;;;;;45.80;15.25;;;;;;;3.12;83.97;100116.47;4388203;32;20050;-75
2022/03/15 01:46:50;;;;;;;41.15;16.40;;;;;;;2.95;84.39;100088.28;4388163;32;20039;-74
2022/03/15 01:49:18;;;;;;;46.40;18.70;;;;;;;3.23;84.44;100133.91;4374841;32;20023;-74
2022/03/15 01:51:47;;;;;;;39.92;17.95;;;;;;;3.24;85.13;100131.06;4374668;32;20082;-74
2022/03/15 01:54:14;;;;;;;47.80;17.90;;;;;;;3.24;85.79;100131.06;4375040;32;20053;-74
2022/03/15 01:56:42;;;;;;;50.25;19.77;;;;;;;2.53;86.52;100029.16;4374712;32;20306;-74
2022/03/15 01:59:10;;;;;;;47.80;19.40;;;;;;;3.08;87.43;100120.50;4387939;32;20433;-73
2022/03/15 02:01:39;;;;;;;43.80;17.98;;;;;;;3.06;87.98;100127.81;4374788;32;20031;-74
2022/03/15 02:04:06;;;;;;;41.78;19.12;;;;;;;2.93;88.32;100116.91;4374511;32;20074;-73
2022/03/15 02:06:38;;;;;;;55.53;18.40;;;;;;;2.98;89.38;100130.53;4388235;32;20038;-73
2022/03/15 02:09:09;;;;;;;46.13;17.80;;;;;;;2.71;89.60;100087.41;4388155;32;20035;-73
2022/03/15 02:11:36;;;;;;;54.33;18.45;;;;;;;3.00;89.43;100149.78;4374588;32;20035;-74
2022/03/15 02:14:05;;;;;;;41.22;15.80;;;;;;;2.76;88.80;100085.06;4374372;32;20032;-74
2022/03/15 02:16:33;;;;;;;34.10;16.08;;;;;;;3.09;88.35;100138.13;4374398;32;20057;-74
2022/03/15 02:19:06;;;;;;;36.58;16.85;;;;;;;3.10;88.09;100137.12;4375396;32;20076;-74
2022/03/15 02:21:36;;;;;;;39.50;14.43;;;;;;;3.05;88.96;100142.16;4374841;32;20023;-74
2022/03/15 02:24:03;;;;;;;44.42;17.62;;;;;;;3.14;88.37;100146.41;4374328;32;20031;-74
2022/03/15 02:26:30;;;;;;;37.10;15.75;;;;;;;3.18;88.07;100147.72;4374395;32;20061;-74
2022/03/15 02:28:57;;;;;;;45.40;16.60;;;;;;;3.18;87.88;100145.06;4374450;32;20066;-74
2022/03/15 02:31:24;;;;;;;36.58;15.55;;;;;;;3.17;87.93;100146.06;4374319;32;20039;-74
2022/03/15 02:33:57;;;;;;;39.65;14.55;;;;;;;3.22;87.71;100138.41;4382525;32;20060;-74
2022/03/15 02:36:24;;;;;;;37.58;14.05;;;;;;;2.91;87.60;100093.97;4374250;32;20069;-74
2022/03/15 02:38:50;;;;;;;34.90;14.77;;;;;;;3.25;88.12;100131.87;4387839;32;20361;-74
2022/03/15 02:41:17;;;;;;;33.22;15.45;;;;;;;2.97;88.51;100086.28;4374315;32;20107;-74
2022/03/15 02:43:44;;;;;;;35.78;14.70;;;;;;;3.32;89.11;100142.66;4374380;32;20036;-74
2022/03/15 02:46:12;;;;;;;37.72;14.93;;;;;;;3.36;89.02;100138.66;4374819;32;20061;-74
2022/03/15 02:48:39;;;;;;;42.88;16.23;;;;;;;3.05;89.14;100100.38;4374840;32;20371;-74
2022/03/15 02:51:10;;;;;;;39.28;14.68;;;;;;;3.35;89.33;100139.66;4388258;32;20092;-74
2022/03/15 02:53:37;;;;;;;40.72;14.95;;;;;;;3.06;89.49;100103.88;4374789;32;20059;-74
2022/03/15 02:56:11;;;;;;;34.05;15.88;;;;;;;3.19;91.17;100127.25;4372225;32;20368;-74
2022/03/15 02:58:39;;;;;;;44.30;15.55;;;;;;;3.32;92.35;100142.66;4374676;32;20026;-74
2022/03/15 03:01:07;;;;;;;28.77;13.77;;;;;;;3.32;92.63;100142.66;4374346;32;20070;-74
2022/03/15 03:03:34;;;;;;;44.85;14.73;;;;;;;3.33;93.32;100146.97;4388161;32;20094;-74
2022/03/15 03:06:02;;;;;;;41.83;15.50;;;;;;;3.32;93.95;100150.62;4387819;32;20084;-74
2022/03/15 03:08:30;;;;;;;41.55;16.48;;;;;;;3.36;93.60;100154.63;4374010;32;20035;-74
2022/03/15 03:10:58;;;;;;;30.50;12.07;;;;;;;3.27;94.36;100140.50;4387593;32;20034;-74
2022/03/15 03:13:26;;;;;;;36.28;14.73;;;;;;;3.41;94.18;100146.94;4387987;32;20051;-74
2022/03/15 03:15:56;;;;;;;40.95;14.60;;;;;;;3.43;94.14;100144.91;4368489;32;20035;-74
2022/03/15 03:18:32;;;;;;;38.15;15.77;;;;;;;3.40;95.37;100129.31;4383901;32;20394;-74
2022/03/15 03:21:01;;;;;;;34.33;13.52;;;;;;;3.38;96.15;100120.66;4378952;32;20153;-74
2022/03/15 03:23:29;;;;;;;61.72;24.83;;;;;;;3.45;97.30;100140.25;4384998;32;20488;-75
2022/03/15 03:25:56;;;;;;;43.78;16.58;;;;;;;3.49;96.89;100133.56;4374753;32;20049;-73
2022/03/15 03:28:24;;;;;;;41.15;15.85;;;;;;;3.16;99.04;100080.53;4376931;32;20073;-74
2022/03/15 03:30:51;;;;;;;50.50;17.48;;;;;;;3.47;99.49;100130.25;4388916;32;20027;-75
2022/03/15 03:33:19;;;;;;;43.53;14.27;;;;;;;2.80;99.53;100027.84;4376696;32;20041;-75
2022/03/15 03:35:49;;;;;;;33.63;13.43;;;;;;;3.05;100.00;100078.28;4389058;32;20584;-74
2022/03/15 03:38:17;;;;;;;32.33;15.20;;;;;;;3.30;100.00;100128.69;4376747;32;20032;-74
2022/03/15 03:40:44;;;;;;;33.25;13.55;;;;;;;2.91;100.00;100093.97;4376260;32;20340;-74
2022/03/15 03:43:12;;;;;;;63.35;24.52;;;;;;;3.13;100.00;100134.12;4376624;32;20031;-74
2022/03/15 03:45:40;;;;;;;39.50;18.27;;;;;;;3.14;100.00;100138.41;4389848;32;20459;-75
2022/03/15 03:48:07;;;;;;;34.72;17.20;;;;;;;2.76;100.00;100095.72;4376422;32;20065;-74
2022/03/15 03:50:35;;;;;;;37.08;15.93;;;;;;;3.02;100.00;100139.81;4376401;32;20057;-74
2022/03/15 03:53:03;;;;;;;37.13;14.15;;;;;;;2.65;100.00;100088.09;4376721;32;20398;-74
2022/03/15 03:55:30;;;;;;;33.80;13.10;;;;;;;2.93;100.00;100148.84;4376510;32;20372;-74
2022/03/15 03:57:57;;;;;;;37.28;14.18;;;;;;;2.86;100.00;100144.22;4363756;32;20409;-75
2022/03/15 04:00:24;;;;;;;42.72;15.40;;;;;;;2.80;100.00;100150.22;4389688;32;20392;-74
2022/03/15 04:02:53;;;;;;;32.80;13.77;;;;;;;2.77;100.00;100145.22;4389802;32;20475;-75
2022/03/15 04:05:20;;;;;;;36.53;15.05;;;;;;;2.79;100.00;100132.59;4376181;32;20031;-74
2022/03/15 04:07:47;;;;;;;32.35;14.50;;;;;;;2.27;100.00;100043.53;4376394;32;20175;-73
2022/03/15 04:10:16;;;;;;;33.50;15.40;;;;;;;2.37;100.00;100069.91;4376086;32;20061;-74
2022/03/15 04:12:43;;;;;;;43.40;13.98;;;;;;;2.66;100.00;100124.31;4388445;32;20043;-74
2022/03/15 04:15:10;;;;;;;33.58;13.38;;;;;;;2.36;100.00;100068.25;4390299;32;20016;-74
2022/03/15 04:17:37;;;;;;;34.67;13.85;;;;;;;2.36;100.00;100066.44;4375854;32;20068;-74
2022/03/15 04:20:05;;;;;;;34.22;13.90;;;;;;;2.70;100.00;100123.00;4363858;32;20049;-74
2022/03/15 04:22:31;;;;;;;39.28;13.88;;;;;;;2.68;100.00;100119.66;4375650;32;20069;-75
2022/03/15 04:24:58;;;;;;;37.80;16.25;;;;;;;2.63;100.00;100122.00;4376397;32;20089;-74
2022/03/15 04:27:25;;;;;;;39.53;14.75;;;;;;;2.58;100.00;100124.34;4389561;32;20043;-74
2022/03/15 04:29:51;;;;;;;29.48;14.35;;;;;;;2.32;100.00;100082.88;4389266;32;20089;-74
2022/03/15 04:32:19;;;;;;;32.47;14.38;;;;;;;2.63;100.00;100137.97;4375625;32;20027;-74
2022/03/15 04:34:46;;;;;;;36.50;13.93;;;;;;;2.30;100.00;100084.91;4376751;32;20057;-73
2022/03/15 04:37:12;;;;;;;38.08;13.23;;;;;;;2.36;100.00;100090.34;4375440;32;20150;-73
2022/03/15 04:39:39;;;;;;;31.90;14.60;;;;;;;2.33;100.00;100090.69;4389433;32;20039;-73
2022/03/15 04:42:06;;;;;;;33.85;13.62;;;;;;;2.60;100.00;100138.31;4389160;32;20095;-73
2022/03/15 04:44:33;;;;;;;40.00;13.77;;;;;;;2.70;100.00;100149.59;4388267;32;20049;-73
2022/03/15 04:46:59;;;;;;;32.45;13.95;;;;;;;2.69;100.00;100142.59;4376340;32;20053;-74
2022/03/15 04:49:26;;;;;;;35.80;15.25;;;;;;;2.67;100.00;100141.94;4362782;32;20073;-74
2022/03/15 04:51:53;;;;;;;33.25;13.62;;;;;;;2.36;100.00;100090.34;4389286;32;20031;-74
2022/03/15 04:54:19;;;;;;;28.55;12.65;;;;;;;2.33;100.00;100089.84;4375574;32;20423;-74
2022/03/15 04:56:46;;;;;;;39.53;14.75;;;;;;;2.27;100.00;100090.56;4375549;32;20423;-73
2022/03/15 04:59:13;;;;;;;31.27;13.68;;;;;;;2.55;100.00;100141.47;4376142;32;20360;-73
2022/03/15 05:01:40;;;;;;;41.65;14.07;;;;;;;2.36;100.00;100100.12;4376162;32;20196;-73
2022/03/15 05:04:06;;;;;;;26.65;13.32;;;;;;;2.27;100.00;100087.87;4375867;32;20092;-73
2022/03/15 05:06:33;;;;;;;32.13;14.35;;;;;;;2.56;100.00;100131.69;4375304;32;20027;-73
2022/03/15 05:09:00;;;;;;;28.62;12.77;;;;;;;2.20;100.00;100065.62;4375746;32;20031;-74
2022/03/15 05:11:27;;;;;;;34.65;13.40;;;;;;;2.16;100.00;100058.00;4375507;32;20066;-74
2022/03/15 05:13:54;;;;;;;30.85;12.63;;;;;;;2.29;100.00;100072.59;4375547;32;20032;-74
2022/03/15 05:16:22;;;;;;;38.20;13.75;;;;;;;2.36;100.00;100076.22;4375302;32;20038;-73
2022/03/15 05:18:54;;;;;;;26.17;13.62;;;;;;;2.52;100.00;100102.78;4375566;32;20035;-73
2022/03/15 05:21:25;;;;;;;29.52;12.98;;;;;;;2.40;100.00;100082.88;4390638;32;20012;-74
2022/03/15 05:23:54;;;;;;;29.75;13.35;;;;;;;2.77;100.00;100134.59;4383079;32;20043;-75
2022/03/15 05:26:22;;;;;;;30.05;13.75;;;;;;;2.79;100.00;100143.22;4390003;32;20031;-75
2022/03/15 05:28:49;;;;;;;27.30;12.73;;;;;;;2.82;100.00;100142.88;4389514;32;20377;-73
2022/03/15 05:31:20;;;;;;;37.80;15.07;;;;;;;2.57;100.00;100085.47;4388578;32;20051;-73
2022/03/15 05:33:51;;;;;;;39.25;14.18;;;;;;;2.94;100.00;100137.22;4389031;32;20033;-73
2022/03/15 05:36:19;;;;;;;31.30;13.50;;;;;;;2.29;100.00;100035.38;4389665;32;20055;-73
2022/03/15 05:38:45;;;;;;;28.77;12.98;;;;;;;2.99;100.00;100133.00;4389916;32;20043;-72
2022/03/15 05:41:12;;;;;;;30.30;13.82;;;;;;;3.04;100.00;100132.50;4389793;32;20199;-73
2022/03/15 05:43:38;;;;;;;45.35;13.02;;;;;;;3.08;100.00;100133.81;4376426;32;20051;-74
2022/03/15 05:46:05;;;;;;;36.53;13.05;;;;;;;2.87;100.00;100084.69;4388483;32;20035;-73
2022/03/15 05:48:33;;;;;;;34.05;13.05;;;;;;;3.15;100.00;100126.78;4388441;32;20047;-72
2022/03/15 05:51:00;;;;;;;34.72;13.20;;;;;;;3.07;100.00;100118.84;4374140;32;20455;-72
2022/03/15 05:53:26;;;;;;;37.85;14.68;;;;;;;3.16;100.00;100128.44;4388750;32;20144;-73
2022/03/15 05:55:53;;;;;;;31.75;13.43;;;;;;;2.99;100.00;100081.63;4375109;32;20044;-73
2022/03/15 05:58:20;;;;;;;35.10;12.95;;;;;;;3.35;100.00;100158.28;4389069;32;20298;-73
2022/03/15 06:00:55;;;;;;;33.10;13.38;;;;;;;3.27;100.00;100152.00;4374849;32;20431;-73
2022/03/15 06:03:22;;;;;;;33.58;13.10;;;;;;;3.03;100.00;100097.09;4388610;32;20387;-73
2022/03/15 06:05:51;;;;;;;37.28;15.15;;;;;;;3.07;100.00;100094.91;4389574;32;20042;-74
2022/03/15 06:08:19;;;;;;;25.90;12.95;;;;;;;3.36;100.00;100149.31;4389534;32;20055;-73
2022/03/15 06:10:47;;;;;;;36.92;14.00;;;;;;;3.38;100.00;100136.63;4389705;32;20072;-73
2022/03/15 06:13:13;;;;;;;46.08;15.45;;;;;;;3.39;100.00;100127.66;4375774;32;20031;-74
2022/03/15 06:15:39;;;;;;;33.08;14.82;;;;;;;2.68;100.00;100031.91;4376033;32;20158;-74
2022/03/15 06:18:06;;;;;;;34.83;14.52;;;;;;;3.15;100.00;100094.84;4388834;32;20048;-74
2022/03/15 06:20:34;;;;;;;30.70;14.18;;;;;;;3.48;100.00;100147.91;4389289;32;20056;-73
2022/03/15 06:23:01;;;;;;;27.75;13.77;;;;;;;3.59;100.00;100147.50;4374327;32;20031;-74
2022/03/15 06:25:30;;;;;;;31.30;14.43;;;;;;;3.49;100.00;100141.56;4388839;32;20039;-74
2022/03/15 06:27:56;;;;;;;27.73;12.95;;;;;;;3.73;100.00;100161.03;4374263;32;20366;-73
2022/03/15 06:30:24;;;;;;;30.73;13.38;;;;;;;3.65;100.00;100148.59;4387865;32;20416;-73
2022/03/15 06:32:51;;;;;;;28.45;14.15;;;;;;;3.37;100.00;100108.37;4360688;32;20069;-73
2022/03/15 06:35:19;;;;;;;29.98;13.40;;;;;;;3.72;100.00;100154.91;4357811;33;20416;-73
2022/03/15 06:37:47;;;;;;;34.55;14.10;;;;;;;3.83;100.00;100159.00;4358128;33;20032;-73
2022/03/15 06:40:21;;;;;;;35.83;15.65;;;;;;;3.82;100.00;100152.81;4357728;33;20062;-73
2022/03/15 06:42:48;;;;;;;30.65;14.40;;;;;;;3.87;100.00;100151.47;4358774;32;20089;-75
2022/03/15 06:45:15;;;;;;;31.30;13.07;;;;;;;3.89;100.00;100149.44;4373352;32;20119;-72
2022/03/15 06:47:42;;;;;;;30.08;13.52;;;;;;;3.57;100.00;100114.87;4374233;32;20057;-74
2022/03/15 06:50:09;;;;;;;30.30;14.48;;;;;;;3.86;100.00;100161.31;4359074;32;20338;-75
2022/03/15 06:52:36;;;;;;;34.83;13.32;;;;;;;3.61;100.00;100121.50;4359906;32;20036;-74
2022/03/15 06:55:04;;;;;;;27.90;12.75;;;;;;;3.71;100.00;100112.47;4373209;32;20039;-74
2022/03/15 06:57:31;;;;;;;29.73;14.32;;;;;;;3.99;100.00;100156.19;4360515;32;20159;-75
2022/03/15 06:59:59;;;;;;;27.52;12.75;;;;;;;4.05;100.00;100164.47;4373243;32;20077;-74
2022/03/15 07:02:26;;;;;;;30.10;13.13;;;;;;;4.10;100.00;100172.75;4376708;32;20057;-75
2022/03/15 07:04:53;;;;;;;29.15;13.25;;;;;;;4.10;100.00;100178.09;4374528;32;20074;-74
2022/03/15 07:07:20;;;;;;;29.75;14.18;;;;;;;4.20;100.00;100173.34;4377095;32;20089;-75
2022/03/15 07:09:47;;;;;;;29.17;14.20;;;;;;;3.84;100.00;100130.50;4375353;32;20074;-74
2022/03/15 07:12:13;;;;;;;28.60;14.90;;;;;;;4.00;100.00;100136.53;4375021;32;20036;-73
2022/03/15 07:14:40;;;;;;;36.72;13.13;;;;;;;3.94;100.00;100126.59;4376756;32;20108;-74
2022/03/15 07:17:07;;;;;;;29.65;13.43;;;;;;;3.94;100.00;100126.59;4375908;32;20442;-73
2022/03/15 07:19:33;;;;;;;28.85;14.48;;;;;;;4.29;100.00;100177.59;4363360;32;20026;-73
2022/03/15 07:22:00;;;;;;;37.40;13.48;;;;;;;4.36;100.00;100165.19;4361645;32;20090;-73
2022/03/15 07:24:26;;;;;;;30.55;13.52;;;;;;;4.41;100.00;100169.16;4375607;32;20138;-73
2022/03/15 07:26:53;;;;;;;33.45;13.82;;;;;;;4.55;100.00;100187.03;4375904;32;20031;-73
2022/03/15 07:29:19;;;;;;;33.72;16.23;;;;;;;4.15;100.00;100101.09;4375315;32;20069;-73
2022/03/15 07:31:48;;;;;;;38.47;17.15;;;;;;;4.64;100.00;100180.59;4376093;32;20204;-73
2022/03/15 07:34:14;;;;;;;33.92;14.00;;;;;;;4.69;100.00;100156.03;4375188;32;20044;-72
2022/03/15 07:36:41;;;;;;;46.88;20.52;;;;;;;4.55;100.00;100113.16;4376533;32;20386;-72
2022/03/15 07:39:07;;;;;;;33.42;13.45;;;;;;;5.15;100.00;100187.03;4361796;32;20077;-73
2022/03/15 07:41:40;;;;;;;33.65;13.52;;;;;;;4.66;100.00;100114.53;4360594;32;20031;-72
2022/03/15 07:44:07;;;;;;;28.02;14.40;;;;;;;5.00;100.00;100171.84;4361702;32;20055;-73
2022/03/15 07:46:34;;;;;;;24.50;12.55;;;;;;;5.21;100.00;100187.09;4376528;32;20057;-73
2022/03/15 07:49:00;;;;;;;37.38;17.95;;;;;;;4.98;100.00;100149.88;4373943;32;20035;-73
2022/03/15 07:51:27;;;;;;;25.60;14.98;;;;;;;5.07;100.00;100132.75;4373749;32;20075;-73
2022/03/15 07:53:53;;;;;;;34.03;13.90;;;;;;;5.41;100.00;100181.22;4376330;32;20073;-73
2022/03/15 07:56:20;;;;;;;39.75;15.40;;;;;;;5.31;100.00;100165.44;4375056;32;20048;-73
2022/03/15 07:58:47;;;;;;;25.17;14.23;;;;;;;5.53;100.00;100178.84;4375450;32;20082;-73
2022/03/15 08:01:13;;;;;;;29.20;13.13;;;;;;;5.55;100.00;100174.16;4375201;32;20049;-74
2022/03/15 08:03:40;;;;;;;26.90;12.25;;;;;;;5.01;100.00;100064.06;4374836;32;20043;-72
2022/03/15 08:06:07;;;;;;;20.08;11.25;;;;;;;4.93;100.00;100066.88;4375815;32;20079;-73
2022/03/15 08:08:33;;;;;;;27.87;13.90;;;;;;;5.44;100.00;100167.44;4361380;32;20060;-72
2022/03/15 08:11:06;;;;;;;23.42;12.80;;;;;;;5.27;100.00;100118.78;4362892;32;20507;-72
2022/03/15 08:13:36;;;;;;;27.23;13.50;;;;;;;5.81;100.00;100170.94;4361157;32;20054;-72
2022/03/15 08:16:04;;;;;;;32.95;15.13;;;;;;;5.93;100.00;100173.94;4375774;32;20039;-72
2022/03/15 08:18:30;;;;;;;34.70;15.68;;;;;;;5.98;100.00;100175.06;4374562;32;20073;-73
2022/03/15 08:20:59;;;;;;;27.80;14.40;;;;;;;6.18;100.00;100183.22;4373918;32;20043;-73
2022/03/15 08:23:27;;;;;;;33.30;16.00;;;;;;;5.83;100.00;100159.03;4374343;32;20081;-73
2022/03/15 08:25:55;;;;;;;25.73;14.43;;;;;;;5.96;100.00;100178.88;4375841;32;20074;-73
2022/03/15 08:28:24;;;;;;;28.27;14.27;;;;;;;5.70;100.00;100134.03;4374545;32;20054;-72
2022/03/15 08:30:54;;;;;;;30.25;13.93;;;;;;;5.76;100.00;100136.78;4375513;32;20047;-72
2022/03/15 08:33:21;;;;;;;31.27;14.00;;;;;;;6.09;100.00;100173.69;4376261;32;20031;-73
2022/03/15 08:35:48;;;;;;;26.98;11.50;;;;;;;5.99;100.00;100109.03;4375659;32;20036;-72
2022/03/15 08:38:15;;;;;;;25.62;13.40;;;;;;;6.36;100.00;100184.62;4375612;32;20086;-72
2022/03/15 08:40:41;;;;;;;20.70;11.75;;;;;;;6.44;100.00;100176.44;4362017;32;20402;-74
2022/03/15 08:43:08;;;;;;;25.08;11.73;;;;;;;6.22;100.00;100166.81;4375538;32;20040;-72
2022/03/15 08:45:36;;;;;;;20.95;11.93;;;;;;;6.34;100.00;100171.44;4375660;32;20043;-72
2022/03/15 08:48:03;;;;;;;24.40;11.57;;;;;;;6.37;100.00;100173.72;4375313;32;20089;-73
2022/03/15 08:50:30;;;;;;;26.85;11.85;;;;;;;6.31;100.00;100181.69;4375291;32;20065;-72
2022/03/15 08:52:57;;;;;;;20.80;12.07;;;;;;;6.41;100.00;100178.69;4362257;32;20078;-74
2022/03/15 08:55:27;;;;;;;17.80;11.00;;;;;;;6.58;100.00;100165.84;4373988;32;20035;-73
2022/03/15 08:57:54;;;;;;;22.60;11.32;;;;;;;6.80;100.00;100164.75;4369382;32;20123;-73
2022/03/15 09:00:21;;;;;;;25.60;11.25;;;;;;;6.77;100.00;100149.06;4373820;32;20061;-73
2022/03/15 09:02:48;;;;;;;23.27;9.75;;;;;;;6.93;100.00;100171.22;4362025;32;20346;-73
2022/03/15 09:05:18;;;;;;;20.10;10.30;;;;;;;6.80;100.00;100121.09;4373655;32;20020;-74
2022/03/15 09:07:52;;;;;;;18.23;9.75;;;;;;;7.04;100.00;100160.75;4362033;32;20031;-73
2022/03/15 09:10:20;;;;;;;21.23;10.70;;;;;;;6.94;100.00;100162.13;4374593;32;20020;-73
2022/03/15 09:12:47;;;;;;;18.90;10.48;;;;;;;6.67;100.00;100116.47;4359256;32;20082;-73
2022/03/15 09:15:14;;;;;;;21.12;10.63;;;;;;;7.27;100.00;100149.75;4375473;32;20390;-74
2022/03/15 09:17:41;;;;;;;26.30;11.95;;;;;;;7.37;100.00;100146.69;4374204;32;20082;-73
2022/03/15 09:20:09;;;;;;;20.70;10.52;;;;;;;6.82;100.00;100114.50;4365214;32;20095;-73
2022/03/15 09:22:35;;;;;;;21.05;10.65;;;;;;;6.83;100.00;100109.97;4357768;32;20039;-73
2022/03/15 09:25:03;;;;;;;20.35;11.18;;;;;;;6.65;100.00;100102.47;4359883;32;20430;-73
2022/03/15 09:27:30;;;;;;;21.12;11.95;;;;;;;7.12;100.00;100145.56;4360023;32;20047;-73
2022/03/15 09:29:58;;;;;;;18.42;9.85;;;;;;;7.24;100.00;100144.78;4359824;32;20020;-73
2022/03/15 09:32:25;;;;;;;28.10;11.27;;;;;;;7.23;100.00;100126.22;4359899;32;20044;-73
2022/03/15 09:34:52;;;;;;;21.50;11.05;;;;;;;7.38;100.00;100128.75;4361076;32;20362;-73
2022/03/15 09:37:19;;;;;;;28.17;11.05;;;;;;;7.55;100.00;100146.09;4360350;32;20357;-72
2022/03/15 09:39:45;;;;;;;18.08;10.48;;;;;;;7.74;100.00;100143.69;4373801;32;20065;-73
2022/03/15 09:42:17;;;;;;;23.15;11.98;;;;;;;7.46;100.00;100083.00;4373903;32;20040;-72
2022/03/15 09:44:44;;;;;;;19.00;9.73;;;;;;;7.61;100.00;100123.84;4373763;32;20015;-73
2022/03/15 09:47:15;;;;;;;22.75;11.23;;;;;;;8.07;100.00;100132.13;4374814;32;20032;-73
2022/03/15 09:49:43;;;;;;;21.58;10.15;;;;;;;7.88;100.00;100058.69;4374855;32;20016;-73
2022/03/15 09:52:11;;;;;;;18.33;10.10;;;;;;;7.98;100.00;100086.75;4370651;32;20078;-73
2022/03/15 09:54:38;;;;;;;19.83;9.98;;;;;;;8.13;100.00;100137.50;4361156;32;20464;-73
2022/03/15 09:57:06;;;;;;;24.58;10.05;;;;;;;8.24;100.00;100133.38;4373208;32;20061;-73
2022/03/15 09:59:33;;;;;;;21.85;11.30;;;;;;;8.29;100.00;100119.34;4372353;32;20061;-75
2022/03/15 10:01:59;;;;;;;26.70;12.18;;;;;;;8.21;100.00;100080.13;4369905;32;20032;-72
2022/03/15 10:04:27;;;;;;;20.95;10.45;;;;;;;8.70;100.00;100120.97;4372169;32;20365;-72
2022/03/15 10:06:55;;;;;;;21.95;10.85;;;;;;;8.97;100.00;100127.06;4372295;32;20042;-72
2022/03/15 10:09:21;;;;;;;17.90;9.45;;;;;;;8.96;100.00;100141.53;4375032;32;20364;-73
2022/03/15 10:11:50;;;;;;;17.60;9.38;;;;;;;8.60;100.00;100099.91;4371703;32;20036;-73
2022/03/15 10:14:19;;;;;;;20.05;9.82;;;;;;;8.18;100.00;100080.53;4370122;32;20027;-72
2022/03/15 10:16:46;;;;;;;16.85;8.60;;;;;;;8.49;100.00;100116.66;4366393;32;20065;-74
2022/03/15 10:19:14;;;;;;;20.73;9.18;;;;;;;8.42;100.00;100078.25;4363876;32;20035;-73
2022/03/15 10:21:46;;;;;;;13.88;9.25;;;;;;;8.81;100.00;100116.81;4358895;32;20081;-73
2022/03/15 10:24:18;;;;;;;14.57;7.60;;;;;;;8.86;100.00;100114.31;4371260;32;20076;-73
2022/03/15 10:26:47;;;;;;;16.35;9.02;;;;;;;8.66;100.00;100120.56;4360817;32;20050;-73
2022/03/15 10:29:16;;;;;;;18.27;8.20;;;;;;;8.94;100.00;100122.13;4351817;32;20061;-74
2022/03/15 10:31:43;;;;;;;22.65;9.90;;;;;;;8.92;100.00;100124.19;4370815;32;20061;-74
2022/03/15 10:34:12;;;;;;;24.48;10.35;;;;;;;8.79;100.00;100065.16;4374164;32;20069;-73
2022/03/15 10:36:42;;;;;;;16.95;7.60;;;;;;;9.27;100.00;100110.41;4373187;32;20047;-76
2022/03/15 10:39:10;;;;;;;16.45;7.53;;;;;;;8.69;100.00;100028.81;4359967;32;20384;-73
2022/03/15 10:41:51;;;;;;;13.23;7.62;;;;;;;9.42;100.00;100118.19;4375712;32;20061;-73
2022/03/15 10:44:24;;;;;;;15.57;7.57;;;;;;;9.43;100.00;100058.81;4351285;32;20038;-75
2022/03/15 10:47:13;;;;;;;13.35;7.25;;;;;;;9.40;100.00;100104.97;4359440;32;20028;-73
2022/03/15 10:49:56;;;;;;;18.27;8.45;;;;;;;9.06;100.00;100060.47;4362429;32;20028;-74
2022/03/15 10:52:28;;;;;;;13.90;7.82;;;;;;;9.47;100.00;100104.09;4356384;32;20039;-73
2022/03/15 10:54:55;;;;;;;13.07;6.53;;;;;;;9.40;100.00;100093.38;4380211;32;20036;-72
2022/03/15 10:57:22;;;;;;;13.98;6.93;;;;;;;9.67;100.00;100094.03;4370325;32;20058;-74
2022/03/15 10:59:48;;;;;;;10.18;6.50;;;;;;;9.56;100.00;100089.38;4375005;32;20165;-74
2022/03/15 11:02:15;;;;;;;10.95;7.32;;;;;;;9.21;100.00;100042.22;4376319;32;20098;-74
2022/03/15 11:04:48;;;;;;;13.15;7.10;;;;;;;9.39;100.00;100087.16;4376308;32;20039;-74
2022/03/15 11:07:16;;;;;;;12.85;6.22;;;;;;;9.32;100.00;100045.25;4376901;32;20349;-74
2022/03/15 11:09:44;;;;;;;13.23;6.55;;;;;;;9.09;100.00;100047.47;4376945;32;20146;-74
2022/03/15 11:12:11;;;;;;;13.40;6.65;;;;;;;9.24;100.00;100083.97;4374334;32;20463;-73
2022/03/15 11:14:48;;;;;;;15.73;7.30;;;;;;;8.98;100.00;100042.75;4356820;32;20217;-73
2022/03/15 11:17:24;;;;;;;12.50;7.28;;;;;;;9.27;100.00;100078.16;4371902;32;20274;-73
2022/03/15 11:19:56;;;;;;;12.68;7.35;;;;;;;9.42;100.00;100038.34;4372890;32;20043;-73